sensor_id;sensor_type;location;lat;lon;timestamp;P1;durP1;ratioP1;P2;durP2;ratioP2
43088;SDS011;28709;52.030;5.652;2023-04-03T00:01:14;1.85;;;0.90;;
43088;SDS011;28709;52.030;5.652;2023-04-03T00:03:40;2.88;;;1.27;;
43088;SDS011;28709;52.030;5.652;2023-04-03T00:06:09;1.30;;;0.95;;
43088;SDS011;28709;52.030;5.652;2023-04-03T00:08:36;2.92;;;1.20;;
43088;SDS011;28709;52.030;5.652;2023-04-03T00:11:02;1.77;;;1.02;;
43088;SDS011;28709;52.030;5.652;2023-04-03T00:13:28;2.45;;;1.23;;
43088;SDS011;28709;52.030;5.652;2023-04-03T00:15:54;1.70;;;1.15;;
43088;SDS011;28709;52.030;5.652;2023-04-03T00:18:20;1.73;;;1.15;;
43088;SDS011;28709;52.030;5.652;2023-04-03T00:20:47;2.15;;;0.98;;
43088;SDS011;28709;52.030;5.652;2023-04-03T00:23:12;3.10;;;0.93;;
43088;SDS011;28709;52.030;5.652;2023-04-03T00:25:38;4.85;;;1.45;;
43088;SDS011;28709;52.030;5.652;2023-04-03T00:28:04;3.03;;;1.10;;
43088;SDS011;28709;52.030;5.652;2023-04-03T00:30:30;4.03;;;1.25;;
43088;SDS011;28709;52.030;5.652;2023-04-03T00:32:56;2.47;;;1.40;;
43088;SDS011;28709;52.030;5.652;2023-04-03T00:35:22;2.58;;;1.15;;
43088;SDS011;28709;52.030;5.652;2023-04-03T00:37:52;3.53;;;1.33;;
43088;SDS011;28709;52.030;5.652;2023-04-03T00:40:20;2.45;;;1.45;;
43088;SDS011;28709;52.030;5.652;2023-04-03T00:42:48;3.95;;;1.27;;
43088;SDS011;28709;52.030;5.652;2023-04-03T00:46:16;1.77;;;1.00;;
43088;SDS011;28709;52.030;5.652;2023-04-03T00:48:17;4.68;;;1.90;;
43088;SDS011;28709;52.030;5.652;2023-04-03T00:50:54;2.65;;;1.15;;
43088;SDS011;28709;52.030;5.652;2023-04-03T00:53:23;3.50;;;1.00;;
43088;SDS011;28709;52.030;5.652;2023-04-03T00:55:51;2.42;;;1.00;;
43088;SDS011;28709;52.030;5.652;2023-04-03T00:58:19;4.85;;;1.30;;
43088;SDS011;28709;52.030;5.652;2023-04-03T01:00:48;3.00;;;1.10;;
43088;SDS011;28709;52.030;5.652;2023-04-03T01:03:21;2.50;;;0.95;;
43088;SDS011;28709;52.030;5.652;2023-04-03T01:05:46;3.03;;;1.02;;
43088;SDS011;28709;52.030;5.652;2023-04-03T01:08:12;2.50;;;1.25;;
43088;SDS011;28709;52.030;5.652;2023-04-03T01:10:38;2.05;;;1.30;;
43088;SDS011;28709;52.030;5.652;2023-04-03T01:13:17;4.25;;;1.80;;
43088;SDS011;28709;52.030;5.652;2023-04-03T01:15:45;3.30;;;0.70;;
43088;SDS011;28709;52.030;5.652;2023-04-03T01:18:11;4.40;;;1.20;;
43088;SDS011;28709;52.030;5.652;2023-04-03T01:20:42;4.63;;;1.02;;
43088;SDS011;28709;52.030;5.652;2023-04-03T01:23:34;2.67;;;0.90;;
43088;SDS011;28709;52.030;5.652;2023-04-03T01:26:10;3.13;;;1.52;;
43088;SDS011;28709;52.030;5.652;2023-04-03T01:28:37;2.45;;;1.00;;
43088;SDS011;28709;52.030;5.652;2023-04-03T01:34:08;1.95;;;1.40;;
43088;SDS011;28709;52.030;5.652;2023-04-03T01:36:33;2.70;;;0.95;;
43088;SDS011;28709;52.030;5.652;2023-04-03T01:38:59;2.88;;;1.10;;
43088;SDS011;28709;52.030;5.652;2023-04-03T01:41:26;6.70;;;1.30;;
43088;SDS011;28709;52.030;5.652;2023-04-03T01:43:52;4.72;;;1.40;;
43088;SDS011;28709;52.030;5.652;2023-04-03T01:46:18;3.83;;;1.10;;
43088;SDS011;28709;52.030;5.652;2023-04-03T01:48:44;7.00;;;1.73;;
43088;SDS011;28709;52.030;5.652;2023-04-03T01:51:10;3.65;;;0.93;;
43088;SDS011;28709;52.030;5.652;2023-04-03T01:53:36;1.83;;;1.20;;
43088;SDS011;28709;52.030;5.652;2023-04-03T01:56:01;3.50;;;1.05;;
43088;SDS011;28709;52.030;5.652;2023-04-03T01:58:28;5.70;;;1.80;;
43088;SDS011;28709;52.030;5.652;2023-04-03T02:00:53;6.15;;;1.80;;
43088;SDS011;28709;52.030;5.652;2023-04-03T02:03:19;6.13;;;1.30;;
43088;SDS011;28709;52.030;5.652;2023-04-03T02:05:45;1.33;;;0.82;;
43088;SDS011;28709;52.030;5.652;2023-04-03T02:08:11;4.88;;;1.25;;
43088;SDS011;28709;52.030;5.652;2023-04-03T02:10:38;3.20;;;1.20;;
43088;SDS011;28709;52.030;5.652;2023-04-03T02:13:03;2.95;;;1.50;;
43088;SDS011;28709;52.030;5.652;2023-04-03T02:15:29;3.00;;;1.42;;
43088;SDS011;28709;52.030;5.652;2023-04-03T02:17:55;3.00;;;1.30;;
43088;SDS011;28709;52.030;5.652;2023-04-03T02:20:21;2.45;;;1.00;;
43088;SDS011;28709;52.030;5.652;2023-04-03T02:22:47;4.95;;;1.10;;
43088;SDS011;28709;52.030;5.652;2023-04-03T02:25:13;2.83;;;1.70;;
43088;SDS011;28709;52.030;5.652;2023-04-03T02:27:38;3.33;;;1.15;;
43088;SDS011;28709;52.030;5.652;2023-04-03T02:30:04;3.67;;;1.50;;
43088;SDS011;28709;52.030;5.652;2023-04-03T02:32:31;5.72;;;1.88;;
43088;SDS011;28709;52.030;5.652;2023-04-03T02:34:57;3.38;;;1.10;;
43088;SDS011;28709;52.030;5.652;2023-04-03T02:37:22;4.18;;;1.42;;
43088;SDS011;28709;52.030;5.652;2023-04-03T02:39:48;3.42;;;1.38;;
43088;SDS011;28709;52.030;5.652;2023-04-03T02:42:14;1.52;;;0.90;;
43088;SDS011;28709;52.030;5.652;2023-04-03T02:44:40;2.22;;;1.30;;
43088;SDS011;28709;52.030;5.652;2023-04-03T02:47:05;3.53;;;1.15;;
43088;SDS011;28709;52.030;5.652;2023-04-03T02:49:31;7.68;;;2.58;;
43088;SDS011;28709;52.030;5.652;2023-04-03T02:51:57;4.30;;;1.30;;
43088;SDS011;28709;52.030;5.652;2023-04-03T02:54:22;5.30;;;1.40;;
43088;SDS011;28709;52.030;5.652;2023-04-03T02:56:49;4.03;;;1.17;;
43088;SDS011;28709;52.030;5.652;2023-04-03T02:59:15;3.15;;;1.35;;
43088;SDS011;28709;52.030;5.652;2023-04-03T03:01:41;3.55;;;1.27;;
43088;SDS011;28709;52.030;5.652;2023-04-03T03:04:07;3.25;;;1.10;;
43088;SDS011;28709;52.030;5.652;2023-04-03T03:06:32;4.78;;;1.17;;
43088;SDS011;28709;52.030;5.652;2023-04-03T03:08:58;4.63;;;1.50;;
43088;SDS011;28709;52.030;5.652;2023-04-03T03:11:24;2.95;;;1.40;;
43088;SDS011;28709;52.030;5.652;2023-04-03T03:13:50;2.60;;;1.25;;
43088;SDS011;28709;52.030;5.652;2023-04-03T03:16:16;3.35;;;1.45;;
43088;SDS011;28709;52.030;5.652;2023-04-03T03:18:42;5.05;;;1.17;;
43088;SDS011;28709;52.030;5.652;2023-04-03T03:21:08;4.63;;;1.58;;
43088;SDS011;28709;52.030;5.652;2023-04-03T03:23:35;2.83;;;1.50;;
43088;SDS011;28709;52.030;5.652;2023-04-03T03:26:02;3.30;;;1.55;;
43088;SDS011;28709;52.030;5.652;2023-04-03T03:28:33;4.72;;;1.35;;
43088;SDS011;28709;52.030;5.652;2023-04-03T03:31:00;3.38;;;1.40;;
43088;SDS011;28709;52.030;5.652;2023-04-03T03:33:26;1.70;;;1.00;;
43088;SDS011;28709;52.030;5.652;2023-04-03T03:35:52;2.92;;;1.10;;
43088;SDS011;28709;52.030;5.652;2023-04-03T03:38:18;4.20;;;1.42;;
43088;SDS011;28709;52.030;5.652;2023-04-03T03:40:44;3.45;;;1.20;;
43088;SDS011;28709;52.030;5.652;2023-04-03T03:43:09;7.22;;;1.50;;
43088;SDS011;28709;52.030;5.652;2023-04-03T03:45:35;6.60;;;1.55;;
43088;SDS011;28709;52.030;5.652;2023-04-03T03:48:01;5.60;;;1.65;;
43088;SDS011;28709;52.030;5.652;2023-04-03T03:50:27;4.82;;;2.20;;
43088;SDS011;28709;52.030;5.652;2023-04-03T03:52:53;2.78;;;1.50;;
43088;SDS011;28709;52.030;5.652;2023-04-03T03:55:18;1.77;;;0.93;;
43088;SDS011;28709;52.030;5.652;2023-04-03T03:57:44;5.13;;;2.05;;
43088;SDS011;28709;52.030;5.652;2023-04-03T04:00:10;3.05;;;1.40;;
43088;SDS011;28709;52.030;5.652;2023-04-03T04:02:36;5.78;;;1.95;;
43088;SDS011;28709;52.030;5.652;2023-04-03T04:05:02;2.40;;;1.20;;
43088;SDS011;28709;52.030;5.652;2023-04-03T04:07:28;2.53;;;1.27;;
43088;SDS011;28709;52.030;5.652;2023-04-03T04:09:54;8.95;;;1.85;;
43088;SDS011;28709;52.030;5.652;2023-04-03T04:12:20;4.18;;;1.58;;
43088;SDS011;28709;52.030;5.652;2023-04-03T04:14:46;5.90;;;1.52;;
43088;SDS011;28709;52.030;5.652;2023-04-03T04:17:15;3.78;;;1.70;;
43088;SDS011;28709;52.030;5.652;2023-04-03T04:19:41;6.45;;;2.08;;
43088;SDS011;28709;52.030;5.652;2023-04-03T04:22:06;5.63;;;1.50;;
43088;SDS011;28709;52.030;5.652;2023-04-03T04:24:32;4.90;;;1.73;;
43088;SDS011;28709;52.030;5.652;2023-04-03T04:26:58;2.75;;;1.58;;
43088;SDS011;28709;52.030;5.652;2023-04-03T04:29:23;3.25;;;1.30;;
43088;SDS011;28709;52.030;5.652;2023-04-03T04:31:49;5.57;;;1.25;;
43088;SDS011;28709;52.030;5.652;2023-04-03T04:34:15;5.72;;;1.48;;
43088;SDS011;28709;52.030;5.652;2023-04-03T04:36:41;2.08;;;1.20;;
43088;SDS011;28709;52.030;5.652;2023-04-03T04:39:06;4.20;;;1.98;;
43088;SDS011;28709;52.030;5.652;2023-04-03T04:41:32;2.95;;;1.15;;
43088;SDS011;28709;52.030;5.652;2023-04-03T04:43:59;2.38;;;1.30;;
43088;SDS011;28709;52.030;5.652;2023-04-03T04:46:25;5.05;;;1.38;;
43088;SDS011;28709;52.030;5.652;2023-04-03T04:48:51;6.10;;;2.03;;
43088;SDS011;28709;52.030;5.652;2023-04-03T04:51:17;6.70;;;1.90;;
43088;SDS011;28709;52.030;5.652;2023-04-03T04:53:43;4.55;;;1.52;;
43088;SDS011;28709;52.030;5.652;2023-04-03T04:56:08;4.63;;;1.50;;
43088;SDS011;28709;52.030;5.652;2023-04-03T04:58:34;5.32;;;1.88;;
43088;SDS011;28709;52.030;5.652;2023-04-03T05:01:01;4.40;;;1.60;;
43088;SDS011;28709;52.030;5.652;2023-04-03T05:03:28;10.13;;;2.30;;
43088;SDS011;28709;52.030;5.652;2023-04-03T05:05:54;5.72;;;1.63;;
43088;SDS011;28709;52.030;5.652;2023-04-03T05:08:20;5.47;;;2.33;;
43088;SDS011;28709;52.030;5.652;2023-04-03T05:10:45;4.22;;;1.33;;
43088;SDS011;28709;52.030;5.652;2023-04-03T05:13:11;4.10;;;1.75;;
43088;SDS011;28709;52.030;5.652;2023-04-03T05:15:37;4.85;;;1.50;;
43088;SDS011;28709;52.030;5.652;2023-04-03T05:18:03;4.22;;;1.77;;
43088;SDS011;28709;52.030;5.652;2023-04-03T05:20:30;4.47;;;1.65;;
43088;SDS011;28709;52.030;5.652;2023-04-03T05:22:56;3.95;;;1.60;;
43088;SDS011;28709;52.030;5.652;2023-04-03T05:25:21;6.95;;;1.50;;
43088;SDS011;28709;52.030;5.652;2023-04-03T05:27:48;7.05;;;2.25;;
43088;SDS011;28709;52.030;5.652;2023-04-03T05:30:14;4.57;;;2.20;;
43088;SDS011;28709;52.030;5.652;2023-04-03T05:32:39;7.90;;;2.20;;
43088;SDS011;28709;52.030;5.652;2023-04-03T05:35:06;7.68;;;1.73;;
43088;SDS011;28709;52.030;5.652;2023-04-03T05:37:32;10.73;;;2.55;;
43088;SDS011;28709;52.030;5.652;2023-04-03T05:39:58;5.65;;;1.67;;
43088;SDS011;28709;52.030;5.652;2023-04-03T05:42:24;11.02;;;2.75;;
43088;SDS011;28709;52.030;5.652;2023-04-03T05:44:50;8.00;;;2.33;;
43088;SDS011;28709;52.030;5.652;2023-04-03T05:47:16;8.07;;;2.15;;
43088;SDS011;28709;52.030;5.652;2023-04-03T05:49:42;12.48;;;1.80;;
43088;SDS011;28709;52.030;5.652;2023-04-03T05:52:13;10.45;;;1.70;;
43088;SDS011;28709;52.030;5.652;2023-04-03T05:54:47;7.78;;;1.67;;
43088;SDS011;28709;52.030;5.652;2023-04-03T05:57:14;5.43;;;1.63;;
43088;SDS011;28709;52.030;5.652;2023-04-03T05:59:41;4.97;;;1.73;;
43088;SDS011;28709;52.030;5.652;2023-04-03T06:02:11;7.85;;;1.65;;
43088;SDS011;28709;52.030;5.652;2023-04-03T06:04:38;5.43;;;1.30;;
43088;SDS011;28709;52.030;5.652;2023-04-03T06:07:04;9.57;;;2.22;;
43088;SDS011;28709;52.030;5.652;2023-04-03T06:09:30;5.43;;;1.75;;
43088;SDS011;28709;52.030;5.652;2023-04-03T06:11:56;5.72;;;1.60;;
43088;SDS011;28709;52.030;5.652;2023-04-03T06:14:23;4.93;;;1.75;;
43088;SDS011;28709;52.030;5.652;2023-04-03T06:16:51;4.40;;;1.48;;
43088;SDS011;28709;52.030;5.652;2023-04-03T06:19:17;9.95;;;1.70;;
43088;SDS011;28709;52.030;5.652;2023-04-03T06:21:42;8.25;;;1.80;;
43088;SDS011;28709;52.030;5.652;2023-04-03T06:24:09;7.80;;;1.92;;
43088;SDS011;28709;52.030;5.652;2023-04-03T06:26:38;4.93;;;1.50;;
43088;SDS011;28709;52.030;5.652;2023-04-03T06:29:04;7.35;;;1.40;;
43088;SDS011;28709;52.030;5.652;2023-04-03T06:31:29;3.60;;;1.50;;
43088;SDS011;28709;52.030;5.652;2023-04-03T06:33:55;4.63;;;1.55;;
43088;SDS011;28709;52.030;5.652;2023-04-03T06:36:21;4.82;;;1.67;;
43088;SDS011;28709;52.030;5.652;2023-04-03T06:38:47;6.20;;;1.90;;
43088;SDS011;28709;52.030;5.652;2023-04-03T06:41:13;10.88;;;1.60;;
43088;SDS011;28709;52.030;5.652;2023-04-03T06:43:39;3.70;;;1.25;;
43088;SDS011;28709;52.030;5.652;2023-04-03T06:46:05;3.90;;;1.40;;
43088;SDS011;28709;52.030;5.652;2023-04-03T06:48:31;5.10;;;1.20;;
43088;SDS011;28709;52.030;5.652;2023-04-03T06:50:57;4.60;;;1.48;;
43088;SDS011;28709;52.030;5.652;2023-04-03T06:53:23;4.28;;;1.23;;
43088;SDS011;28709;52.030;5.652;2023-04-03T06:55:48;5.05;;;1.30;;
43088;SDS011;28709;52.030;5.652;2023-04-03T06:58:14;6.32;;;1.63;;
43088;SDS011;28709;52.030;5.652;2023-04-03T07:00:42;4.97;;;1.58;;
43088;SDS011;28709;52.030;5.652;2023-04-03T07:03:08;5.55;;;1.55;;
43088;SDS011;28709;52.030;5.652;2023-04-03T07:05:33;5.47;;;1.60;;
43088;SDS011;28709;52.030;5.652;2023-04-03T07:07:59;5.32;;;1.25;;
43088;SDS011;28709;52.030;5.652;2023-04-03T07:10:25;5.95;;;1.38;;
43088;SDS011;28709;52.030;5.652;2023-04-03T07:12:51;2.65;;;1.00;;
43088;SDS011;28709;52.030;5.652;2023-04-03T07:15:17;4.13;;;1.52;;
43088;SDS011;28709;52.030;5.652;2023-04-03T07:17:43;4.70;;;1.05;;
43088;SDS011;28709;52.030;5.652;2023-04-03T07:20:09;4.57;;;1.25;;
43088;SDS011;28709;52.030;5.652;2023-04-03T07:22:35;3.75;;;1.23;;
43088;SDS011;28709;52.030;5.652;2023-04-03T07:25:01;4.95;;;1.20;;
43088;SDS011;28709;52.030;5.652;2023-04-03T07:27:27;5.18;;;1.50;;
43088;SDS011;28709;52.030;5.652;2023-04-03T07:29:53;3.42;;;1.10;;
43088;SDS011;28709;52.030;5.652;2023-04-03T07:32:20;5.38;;;1.33;;
43088;SDS011;28709;52.030;5.652;2023-04-03T07:34:46;6.63;;;1.85;;
43088;SDS011;28709;52.030;5.652;2023-04-03T07:37:12;2.78;;;1.08;;
43088;SDS011;28709;52.030;5.652;2023-04-03T07:39:37;4.15;;;0.90;;
43088;SDS011;28709;52.030;5.652;2023-04-03T07:42:03;7.43;;;1.52;;
43088;SDS011;28709;52.030;5.652;2023-04-03T07:44:29;6.88;;;1.45;;
43088;SDS011;28709;52.030;5.652;2023-04-03T07:46:55;4.03;;;1.02;;
43088;SDS011;28709;52.030;5.652;2023-04-03T07:49:21;4.57;;;1.50;;
43088;SDS011;28709;52.030;5.652;2023-04-03T07:51:51;4.15;;;1.10;;
43088;SDS011;28709;52.030;5.652;2023-04-03T07:54:17;3.72;;;1.35;;
43088;SDS011;28709;52.030;5.652;2023-04-03T07:56:43;5.30;;;1.17;;
43088;SDS011;28709;52.030;5.652;2023-04-03T07:59:09;4.32;;;1.13;;
43088;SDS011;28709;52.030;5.652;2023-04-03T08:01:36;3.40;;;1.10;;
43088;SDS011;28709;52.030;5.652;2023-04-03T08:04:02;3.88;;;0.77;;
43088;SDS011;28709;52.030;5.652;2023-04-03T08:06:27;3.50;;;1.08;;
43088;SDS011;28709;52.030;5.652;2023-04-03T08:08:55;3.92;;;1.10;;
43088;SDS011;28709;52.030;5.652;2023-04-03T08:11:21;4.53;;;0.75;;
43088;SDS011;28709;52.030;5.652;2023-04-03T08:13:47;3.20;;;1.00;;
43088;SDS011;28709;52.030;5.652;2023-04-03T08:16:15;2.45;;;1.15;;
43088;SDS011;28709;52.030;5.652;2023-04-03T08:18:42;4.70;;;0.98;;
43088;SDS011;28709;52.030;5.652;2023-04-03T08:21:09;2.70;;;1.10;;
43088;SDS011;28709;52.030;5.652;2023-04-03T08:23:36;4.05;;;0.98;;
43088;SDS011;28709;52.030;5.652;2023-04-03T08:26:07;5.45;;;1.20;;
43088;SDS011;28709;52.030;5.652;2023-04-03T08:28:37;5.35;;;1.20;;
43088;SDS011;28709;52.030;5.652;2023-04-03T08:31:05;2.28;;;0.90;;
43088;SDS011;28709;52.030;5.652;2023-04-03T08:33:32;1.35;;;0.60;;
43088;SDS011;28709;52.030;5.652;2023-04-03T08:36:00;1.83;;;0.55;;
43088;SDS011;28709;52.030;5.652;2023-04-03T08:38:28;1.80;;;0.50;;
43088;SDS011;28709;52.030;5.652;2023-04-03T08:41:27;1.65;;;0.70;;
43088;SDS011;28709;52.030;5.652;2023-04-03T08:44:04;5.55;;;0.88;;
43088;SDS011;28709;52.030;5.652;2023-04-03T08:52:14;1.63;;;0.60;;
43088;SDS011;28709;52.030;5.652;2023-04-03T08:57:16;1.23;;;0.50;;
43088;SDS011;28709;52.030;5.652;2023-04-03T09:02:33;1.40;;;0.40;;
43088;SDS011;28709;52.030;5.652;2023-04-03T09:05:11;2.60;;;0.60;;
43088;SDS011;28709;52.030;5.652;2023-04-03T09:08:42;1.15;;;0.40;;
43088;SDS011;28709;52.030;5.652;2023-04-03T09:10:41;3.95;;;0.50;;
43088;SDS011;28709;52.030;5.652;2023-04-03T09:13:22;1.30;;;0.57;;
43088;SDS011;28709;52.030;5.652;2023-04-03T09:16:01;4.28;;;0.52;;
43088;SDS011;28709;52.030;5.652;2023-04-03T09:18:36;0.85;;;0.43;;
43088;SDS011;28709;52.030;5.652;2023-04-03T09:23:53;0.93;;;0.30;;
43088;SDS011;28709;52.030;5.652;2023-04-03T09:26:28;0.63;;;0.28;;
43088;SDS011;28709;52.030;5.652;2023-04-03T09:29:00;2.00;;;0.57;;
43088;SDS011;28709;52.030;5.652;2023-04-03T09:31:36;0.55;;;0.20;;
43088;SDS011;28709;52.030;5.652;2023-04-03T09:34:15;0.43;;;0.20;;
43088;SDS011;28709;52.030;5.652;2023-04-03T09:36:53;0.20;;;0.20;;
43088;SDS011;28709;52.030;5.652;2023-04-03T09:39:25;0.50;;;0.30;;
43088;SDS011;28709;52.030;5.652;2023-04-03T09:42:02;0.73;;;0.30;;
43088;SDS011;28709;52.030;5.652;2023-04-03T09:44:35;1.25;;;0.38;;
43088;SDS011;28709;52.030;5.652;2023-04-03T09:49:51;0.75;;;0.40;;
43088;SDS011;28709;52.030;5.652;2023-04-03T09:52:34;0.63;;;0.30;;
43088;SDS011;28709;52.030;5.652;2023-04-03T09:55:06;1.15;;;0.20;;
43088;SDS011;28709;52.030;5.652;2023-04-03T09:57:33;2.03;;;0.30;;
43088;SDS011;28709;52.030;5.652;2023-04-03T10:00:00;0.90;;;0.25;;
43088;SDS011;28709;52.030;5.652;2023-04-03T10:02:39;0.82;;;0.20;;
43088;SDS011;28709;52.030;5.652;2023-04-03T10:08:06;1.60;;;0.30;;
43088;SDS011;28709;52.030;5.652;2023-04-03T10:10:42;0.50;;;0.20;;
43088;SDS011;28709;52.030;5.652;2023-04-03T10:15:43;1.83;;;0.38;;
43088;SDS011;28709;52.030;5.652;2023-04-03T10:20:47;0.30;;;0.30;;
43088;SDS011;28709;52.030;5.652;2023-04-03T10:23:24;1.45;;;0.38;;
43088;SDS011;28709;52.030;5.652;2023-04-03T10:26:02;0.40;;;0.20;;
43088;SDS011;28709;52.030;5.652;2023-04-03T10:28:39;0.70;;;0.60;;
43088;SDS011;28709;52.030;5.652;2023-04-03T10:31:22;0.50;;;0.30;;
43088;SDS011;28709;52.030;5.652;2023-04-03T10:50:21;2.28;;;0.88;;
43088;SDS011;28709;52.030;5.652;2023-04-03T10:56:30;2.35;;;0.55;;
43088;SDS011;28709;52.030;5.652;2023-04-03T10:58:52;1.90;;;0.47;;
43088;SDS011;28709;52.030;5.652;2023-04-03T11:01:35;1.05;;;0.63;;
43088;SDS011;28709;52.030;5.652;2023-04-03T11:04:04;1.77;;;0.70;;
43088;SDS011;28709;52.030;5.652;2023-04-03T11:07:14;1.80;;;0.73;;
43088;SDS011;28709;52.030;5.652;2023-04-03T11:09:28;1.88;;;0.75;;
43088;SDS011;28709;52.030;5.652;2023-04-03T11:12:04;3.38;;;0.80;;
43088;SDS011;28709;52.030;5.652;2023-04-03T11:14:35;1.10;;;0.50;;
43088;SDS011;28709;52.030;5.652;2023-04-03T11:17:09;2.00;;;0.52;;
43088;SDS011;28709;52.030;5.652;2023-04-03T11:19:42;3.40;;;0.60;;
43088;SDS011;28709;52.030;5.652;2023-04-03T11:22:27;2.15;;;0.60;;
43088;SDS011;28709;52.030;5.652;2023-04-03T11:25:06;1.92;;;0.98;;
43088;SDS011;28709;52.030;5.652;2023-04-03T11:33:22;1.42;;;0.50;;
43088;SDS011;28709;52.030;5.652;2023-04-03T11:35:54;2.05;;;0.50;;
43088;SDS011;28709;52.030;5.652;2023-04-03T11:38:24;1.63;;;0.50;;
43088;SDS011;28709;52.030;5.652;2023-04-03T11:40:59;1.73;;;0.60;;
43088;SDS011;28709;52.030;5.652;2023-04-03T11:43:27;6.57;;;1.33;;
43088;SDS011;28709;52.030;5.652;2023-04-03T11:46:00;3.47;;;0.98;;
43088;SDS011;28709;52.030;5.652;2023-04-03T11:51:00;2.42;;;0.70;;
43088;SDS011;28709;52.030;5.652;2023-04-03T11:53:32;1.92;;;0.90;;
43088;SDS011;28709;52.030;5.652;2023-04-03T11:58:28;4.63;;;0.70;;
43088;SDS011;28709;52.030;5.652;2023-04-03T12:01:00;3.40;;;0.50;;
43088;SDS011;28709;52.030;5.652;2023-04-03T12:03:32;1.08;;;0.63;;
43088;SDS011;28709;52.030;5.652;2023-04-03T12:19:04;1.10;;;0.57;;
43088;SDS011;28709;52.030;5.652;2023-04-03T12:32:43;2.50;;;0.70;;
43088;SDS011;28709;52.030;5.652;2023-04-03T12:43:44;3.28;;;0.68;;
43088;SDS011;28709;52.030;5.652;2023-04-03T12:46:26;5.07;;;0.70;;
43088;SDS011;28709;52.030;5.652;2023-04-03T12:49:02;1.40;;;0.50;;
43088;SDS011;28709;52.030;5.652;2023-04-03T12:51:58;1.80;;;0.60;;
43088;SDS011;28709;52.030;5.652;2023-04-03T12:54:37;1.45;;;0.82;;
43088;SDS011;28709;52.030;5.652;2023-04-03T12:57:19;3.07;;;0.80;;
43088;SDS011;28709;52.030;5.652;2023-04-03T12:59:46;1.42;;;0.73;;
43088;SDS011;28709;52.030;5.652;2023-04-03T13:02:22;1.70;;;0.70;;
43088;SDS011;28709;52.030;5.652;2023-04-03T13:04:52;1.90;;;0.60;;
43088;SDS011;28709;52.030;5.652;2023-04-03T13:07:30;1.73;;;0.55;;
43088;SDS011;28709;52.030;5.652;2023-04-03T13:10:14;2.20;;;0.80;;
43088;SDS011;28709;52.030;5.652;2023-04-03T13:15:18;0.88;;;0.43;;
43088;SDS011;28709;52.030;5.652;2023-04-03T13:17:54;2.28;;;0.77;;
43088;SDS011;28709;52.030;5.652;2023-04-03T13:20:24;2.08;;;0.90;;
43088;SDS011;28709;52.030;5.652;2023-04-03T13:23:00;1.50;;;0.70;;
43088;SDS011;28709;52.030;5.652;2023-04-03T13:25:34;2.15;;;0.95;;
43088;SDS011;28709;52.030;5.652;2023-04-03T13:28:05;2.20;;;0.68;;
43088;SDS011;28709;52.030;5.652;2023-04-03T13:30:36;8.55;;;0.80;;
43088;SDS011;28709;52.030;5.652;2023-04-03T13:33:04;1.20;;;0.50;;
43088;SDS011;28709;52.030;5.652;2023-04-03T13:35:43;1.42;;;0.75;;
43088;SDS011;28709;52.030;5.652;2023-04-03T13:40:52;3.95;;;0.70;;
43088;SDS011;28709;52.030;5.652;2023-04-03T13:43:22;5.93;;;0.77;;
43088;SDS011;28709;52.030;5.652;2023-04-03T13:48:40;3.15;;;0.70;;
43088;SDS011;28709;52.030;5.652;2023-04-03T13:54:22;2.63;;;0.60;;
43088;SDS011;28709;52.030;5.652;2023-04-03T13:56:41;2.40;;;0.65;;
43088;SDS011;28709;52.030;5.652;2023-04-03T14:01:55;2.53;;;0.77;;
43088;SDS011;28709;52.030;5.652;2023-04-03T14:04:27;3.15;;;0.85;;
43088;SDS011;28709;52.030;5.652;2023-04-03T14:06:55;2.03;;;0.70;;
43088;SDS011;28709;52.030;5.652;2023-04-03T14:09:22;2.92;;;1.23;;
43088;SDS011;28709;52.030;5.652;2023-04-03T14:11:50;2.65;;;0.90;;
43088;SDS011;28709;52.030;5.652;2023-04-03T14:14:26;2.03;;;0.80;;
43088;SDS011;28709;52.030;5.652;2023-04-03T14:16:56;2.47;;;0.80;;
43088;SDS011;28709;52.030;5.652;2023-04-03T14:19:32;2.92;;;0.88;;
43088;SDS011;28709;52.030;5.652;2023-04-03T14:21:59;1.60;;;0.80;;
43088;SDS011;28709;52.030;5.652;2023-04-03T14:24:31;2.58;;;0.98;;
43088;SDS011;28709;52.030;5.652;2023-04-03T14:26:57;3.67;;;0.85;;
43088;SDS011;28709;52.030;5.652;2023-04-03T14:29:24;2.17;;;0.80;;
43088;SDS011;28709;52.030;5.652;2023-04-03T14:31:50;3.55;;;0.93;;
43088;SDS011;28709;52.030;5.652;2023-04-03T14:34:16;1.73;;;0.80;;
43088;SDS011;28709;52.030;5.652;2023-04-03T14:36:43;2.90;;;0.90;;
43088;SDS011;28709;52.030;5.652;2023-04-03T14:39:10;3.40;;;0.98;;
43088;SDS011;28709;52.030;5.652;2023-04-03T14:41:43;1.90;;;0.80;;
43088;SDS011;28709;52.030;5.652;2023-04-03T14:44:11;3.58;;;1.13;;
43088;SDS011;28709;52.030;5.652;2023-04-03T14:46:38;1.98;;;0.65;;
43088;SDS011;28709;52.030;5.652;2023-04-03T14:49:11;1.42;;;0.73;;
43088;SDS011;28709;52.030;5.652;2023-04-03T14:51:59;1.90;;;0.80;;
43088;SDS011;28709;52.030;5.652;2023-04-03T14:54:24;2.67;;;0.95;;
43088;SDS011;28709;52.030;5.652;2023-04-03T14:56:52;3.53;;;1.05;;
43088;SDS011;28709;52.030;5.652;2023-04-03T14:59:20;2.42;;;1.00;;
43088;SDS011;28709;52.030;5.652;2023-04-03T15:01:47;2.90;;;1.00;;
43088;SDS011;28709;52.030;5.652;2023-04-03T15:04:17;3.05;;;1.38;;
43088;SDS011;28709;52.030;5.652;2023-04-03T15:06:44;2.50;;;1.02;;
43088;SDS011;28709;52.030;5.652;2023-04-03T15:09:21;2.97;;;0.80;;
43088;SDS011;28709;52.030;5.652;2023-04-03T15:11:49;2.00;;;0.90;;
43088;SDS011;28709;52.030;5.652;2023-04-03T15:14:16;4.95;;;0.75;;
43088;SDS011;28709;52.030;5.652;2023-04-03T15:16:43;2.50;;;1.10;;
43088;SDS011;28709;52.030;5.652;2023-04-03T15:19:09;2.30;;;1.08;;
43088;SDS011;28709;52.030;5.652;2023-04-03T15:21:36;3.30;;;1.25;;
43088;SDS011;28709;52.030;5.652;2023-04-03T15:24:02;5.15;;;1.20;;
43088;SDS011;28709;52.030;5.652;2023-04-03T15:26:28;2.88;;;0.90;;
43088;SDS011;28709;52.030;5.652;2023-04-03T15:28:54;5.45;;;1.17;;
43088;SDS011;28709;52.030;5.652;2023-04-03T15:31:20;5.65;;;1.25;;
43088;SDS011;28709;52.030;5.652;2023-04-03T15:33:46;6.43;;;1.10;;
43088;SDS011;28709;52.030;5.652;2023-04-03T15:36:12;1.83;;;0.70;;
43088;SDS011;28709;52.030;5.652;2023-04-03T15:38:37;4.10;;;1.02;;
43088;SDS011;28709;52.030;5.652;2023-04-03T15:41:04;2.22;;;0.80;;
43088;SDS011;28709;52.030;5.652;2023-04-03T15:43:30;2.38;;;1.25;;
43088;SDS011;28709;52.030;5.652;2023-04-03T15:45:56;2.95;;;1.15;;
43088;SDS011;28709;52.030;5.652;2023-04-03T15:48:25;2.22;;;0.90;;
43088;SDS011;28709;52.030;5.652;2023-04-03T15:50:51;3.50;;;1.00;;
43088;SDS011;28709;52.030;5.652;2023-04-03T15:53:17;3.33;;;1.17;;
43088;SDS011;28709;52.030;5.652;2023-04-03T15:55:43;4.43;;;1.45;;
43088;SDS011;28709;52.030;5.652;2023-04-03T15:58:09;1.92;;;0.82;;
43088;SDS011;28709;52.030;5.652;2023-04-03T16:00:35;3.92;;;1.13;;
43088;SDS011;28709;52.030;5.652;2023-04-03T16:03:07;5.22;;;1.10;;
43088;SDS011;28709;52.030;5.652;2023-04-03T16:05:36;4.05;;;0.95;;
43088;SDS011;28709;52.030;5.652;2023-04-03T16:08:04;5.95;;;1.05;;
43088;SDS011;28709;52.030;5.652;2023-04-03T16:10:32;6.88;;;1.35;;
43088;SDS011;28709;52.030;5.652;2023-04-03T16:12:58;2.15;;;0.80;;
43088;SDS011;28709;52.030;5.652;2023-04-03T16:15:24;2.30;;;1.00;;
43088;SDS011;28709;52.030;5.652;2023-04-03T16:17:51;5.63;;;1.63;;
43088;SDS011;28709;52.030;5.652;2023-04-03T16:20:18;3.05;;;1.00;;
43088;SDS011;28709;52.030;5.652;2023-04-03T16:22:44;3.50;;;0.98;;
43088;SDS011;28709;52.030;5.652;2023-04-03T16:25:11;3.70;;;1.02;;
43088;SDS011;28709;52.030;5.652;2023-04-03T16:27:37;2.15;;;1.02;;
43088;SDS011;28709;52.030;5.652;2023-04-03T16:30:04;2.38;;;1.00;;
43088;SDS011;28709;52.030;5.652;2023-04-03T16:32:31;3.70;;;1.00;;
43088;SDS011;28709;52.030;5.652;2023-04-03T16:34:57;3.65;;;1.15;;
43088;SDS011;28709;52.030;5.652;2023-04-03T16:37:23;4.28;;;0.95;;
43088;SDS011;28709;52.030;5.652;2023-04-03T16:39:50;1.92;;;0.80;;
43088;SDS011;28709;52.030;5.652;2023-04-03T16:42:16;3.08;;;1.23;;